createdAt,value
2023-03-31T00:01:10.559Z,26.47
2023-03-31T00:03:44.801Z,26.68
2023-03-31T00:06:19.024Z,26.07
2023-03-31T00:08:52.042Z,26.23
2023-03-31T00:11:22.704Z,25.91
2023-03-31T00:13:51.063Z,25.71
2023-03-31T00:16:19.819Z,25.99
2023-03-31T00:18:51.164Z,26.06
2023-03-31T00:21:26.094Z,25.55
2023-03-31T00:23:55.855Z,25.82
2023-03-31T00:26:24.716Z,25.99
2023-03-31T00:28:53.784Z,26.07
2023-03-31T00:31:22.621Z,26.23
2023-03-31T00:33:51.365Z,26.19
2023-03-31T00:36:27.524Z,25.97
2023-03-31T00:38:56.398Z,26.39
2023-03-31T00:41:24.965Z,26.77
2023-03-31T00:44:14.505Z,25.34
2023-03-31T00:46:47.051Z,25.82
2023-03-31T00:49:20.990Z,25.92
2023-03-31T00:51:52.635Z,26.06
2023-03-31T00:54:21.599Z,26.31
2023-03-31T00:56:53.402Z,26.16
2023-03-31T00:59:22.357Z,26.10
2023-03-31T01:01:52.997Z,26.31
2023-03-31T01:04:22.698Z,26.61
2023-03-31T01:07:01.025Z,25.81
2023-03-31T01:09:35.318Z,26.00
2023-03-31T01:12:07.707Z,26.14
2023-03-31T01:14:36.241Z,26.22
2023-03-31T01:17:05.503Z,26.17
2023-03-31T01:19:46.533Z,25.57
2023-03-31T01:22:41.410Z,25.19
2023-03-31T01:25:38.842Z,25.09
2023-03-31T01:28:14.386Z,25.54
2023-03-31T01:31:19.178Z,24.98
2023-03-31T01:34:25.094Z,24.84
2023-03-31T01:37:37.779Z,25.27
2023-03-31T01:40:50.839Z,25.01
2023-03-31T01:43:24.696Z,25.48
2023-03-31T01:45:58.776Z,25.52
2023-03-31T01:48:35.427Z,25.74
2023-03-31T01:51:08.322Z,26.10
2023-03-31T01:53:42.381Z,26.02
2023-03-31T01:56:16.523Z,26.16
2023-03-31T01:58:52.574Z,26.06
2023-03-31T02:01:25.512Z,26.30
2023-03-31T02:03:57.008Z,26.31
2023-03-31T02:06:30.774Z,26.24
2023-03-31T02:09:02.437Z,26.22
2023-03-31T02:11:32.478Z,26.42
2023-03-31T02:14:03.953Z,26.43
2023-03-31T02:16:34.858Z,25.99
2023-03-31T02:19:06.163Z,26.07
2023-03-31T02:21:36.469Z,26.33
2023-03-31T02:24:08.638Z,25.85
2023-03-31T02:26:39.531Z,26.09
2023-03-31T02:29:09.383Z,26.30
2023-03-31T02:31:44.035Z,25.96
2023-03-31T02:34:12.797Z,26.62
2023-03-31T02:36:42.428Z,26.32
2023-03-31T02:39:13.943Z,25.75
2023-03-31T02:41:42.988Z,26.33
2023-03-31T02:44:13.299Z,25.88
2023-03-31T02:46:42.246Z,26.20
2023-03-31T02:49:12.083Z,25.93
2023-03-31T02:52:06.521Z,25.34
2023-03-31T02:54:49.575Z,25.28
2023-03-31T02:57:29.704Z,25.36
2023-03-31T03:00:09.573Z,25.35
2023-03-31T03:02:45.712Z,25.52
2023-03-31T03:05:26.343Z,25.28
2023-03-31T03:08:00.056Z,25.84
2023-03-31T03:10:31.990Z,25.76
2023-03-31T03:13:07.952Z,25.26
2023-03-31T03:15:39.346Z,25.75
2023-03-31T03:18:08.283Z,25.92
2023-03-31T03:20:36.725Z,26.11
2023-03-31T03:23:05.238Z,26.19
2023-03-31T03:25:34.253Z,26.06
2023-03-31T03:28:02.890Z,25.92
2023-03-31T03:30:31.261Z,25.93
2023-03-31T03:33:01.376Z,25.79
2023-03-31T03:35:29.774Z,25.80
2023-03-31T03:37:58.363Z,25.79
2023-03-31T03:40:26.703Z,25.92
2023-03-31T03:42:55.204Z,26.01
2023-03-31T03:45:23.555Z,25.83
2023-03-31T03:47:52.290Z,26.13
2023-03-31T03:50:22.322Z,25.51
2023-03-31T03:52:50.887Z,25.76
2023-03-31T03:55:19.162Z,25.94
2023-03-31T03:57:47.728Z,25.67
2023-03-31T04:00:17.116Z,25.80
2023-03-31T04:02:45.827Z,25.96
2023-03-31T04:05:14.173Z,25.79
2023-03-31T04:07:44.218Z,25.79
2023-03-31T04:10:12.805Z,25.99
2023-03-31T04:12:41.742Z,25.77
2023-03-31T04:15:10.850Z,25.87
2023-03-31T04:17:39.428Z,25.95
2023-03-31T04:20:10.209Z,25.59
2023-03-31T04:22:41.768Z,25.75
2023-03-31T04:25:16.929Z,25.38
2023-03-31T04:27:47.019Z,25.81
2023-03-31T04:30:22.903Z,25.74
2023-03-31T04:32:53.312Z,25.67
2023-03-31T04:35:22.624Z,26.21
2023-03-31T04:37:52.634Z,25.99
2023-03-31T04:40:22.449Z,26.20
2023-03-31T04:42:51.325Z,26.77
2023-03-31T04:45:19.765Z,26.43
2023-03-31T04:47:48.478Z,26.37
2023-03-31T04:50:17.233Z,26.57
2023-03-31T04:52:46.447Z,26.71
2023-03-31T04:55:14.791Z,26.97
2023-03-31T04:57:44.979Z,26.26
2023-03-31T05:00:14.999Z,26.34
2023-03-31T05:02:43.661Z,26.72
2023-03-31T05:05:12.362Z,26.76
2023-03-31T05:07:41.218Z,26.45
2023-03-31T05:10:10.384Z,25.37
2023-03-31T05:12:39.386Z,24.60
2023-03-31T05:15:10.408Z,24.00
2023-03-31T05:17:38.990Z,23.11
2023-03-31T05:20:09.694Z,22.39
2023-03-31T05:22:40.781Z,21.49
2023-03-31T05:25:11.876Z,21.13
2023-03-31T05:27:40.416Z,20.51
2023-03-31T05:30:11.240Z,19.72
2023-03-31T05:32:40.094Z,19.84
2023-03-31T05:35:09.026Z,19.51
2023-03-31T05:37:38.514Z,19.13
2023-03-31T05:40:09.387Z,19.04
2023-03-31T05:42:38.120Z,18.70
2023-03-31T05:45:09.192Z,17.89
2023-03-31T05:47:40.005Z,17.24
2023-03-31T05:50:09.486Z,17.10
2023-03-31T05:52:38.465Z,16.94
2023-03-31T05:55:08.176Z,16.69
2023-03-31T05:57:37.153Z,16.15
2023-03-31T06:00:09.481Z,15.70
2023-03-31T06:02:41.292Z,15.57
2023-03-31T06:05:10.407Z,15.65
2023-03-31T06:07:39.246Z,15.27
2023-03-31T06:10:11.012Z,14.83
2023-03-31T06:12:40.305Z,14.32
2023-03-31T06:15:10.219Z,13.63
2023-03-31T06:17:40.920Z,13.39
2023-03-31T06:20:24.080Z,13.20
2023-03-31T06:22:56.294Z,12.91
2023-03-31T06:25:24.748Z,13.23
2023-03-31T06:27:53.958Z,13.01
2023-03-31T06:30:23.015Z,13.02
2023-03-31T06:32:53.204Z,13.00
2023-03-31T06:35:21.587Z,12.81
2023-03-31T06:37:50.523Z,12.30
2023-03-31T06:40:19.206Z,12.00
2023-03-31T06:42:47.946Z,11.50
2023-03-31T06:45:16.604Z,11.12
2023-03-31T06:47:45.524Z,10.67
2023-03-31T06:50:15.491Z,10.34
2023-03-31T06:52:44.318Z,10.87
2023-03-31T06:55:13.452Z,10.24
2023-03-31T06:57:42.471Z,9.94
2023-03-31T07:00:11.899Z,9.62
2023-03-31T07:02:41.032Z,8.96
2023-03-31T07:05:11.709Z,8.77
2023-03-31T07:07:42.893Z,8.63
2023-03-31T07:10:13.218Z,8.72
2023-03-31T07:12:41.911Z,8.37
2023-03-31T07:15:11.482Z,8.68
2023-03-31T07:17:42.168Z,8.42
2023-03-31T07:20:15.129Z,8.08
2023-03-31T07:22:47.187Z,7.33
2023-03-31T07:25:18.124Z,7.31
2023-03-31T07:27:47.049Z,7.00
2023-03-31T07:30:17.666Z,6.75
2023-03-31T07:32:50.482Z,6.58
2023-03-31T07:35:20.057Z,6.62
2023-03-31T07:37:51.448Z,6.52
2023-03-31T07:40:22.672Z,6.49
2023-03-31T07:42:52.396Z,5.70
2023-03-31T07:45:21.828Z,5.21
2023-03-31T07:47:51.180Z,5.46
2023-03-31T07:50:20.555Z,5.18
2023-03-31T07:52:50.818Z,5.58
2023-03-31T07:55:20.144Z,5.85
2023-03-31T07:57:52.096Z,5.54
2023-03-31T08:00:21.532Z,5.29
2023-03-31T08:02:50.290Z,6.11
2023-03-31T08:05:20.920Z,6.98
2023-03-31T08:07:52.080Z,7.94
2023-03-31T08:10:21.316Z,8.06
2023-03-31T08:12:50.367Z,9.06
2023-03-31T08:15:19.543Z,9.21
2023-03-31T08:17:48.432Z,9.81
2023-03-31T08:20:16.995Z,10.88
2023-03-31T08:22:46.010Z,11.21
2023-03-31T08:25:16.463Z,10.60
2023-03-31T08:27:46.721Z,10.71
2023-03-31T08:30:15.588Z,11.13
2023-03-31T08:32:44.597Z,11.27
2023-03-31T08:35:13.123Z,10.87
2023-03-31T08:37:42.071Z,10.36
2023-03-31T08:40:18.106Z,8.54
2023-03-31T08:42:49.229Z,7.99
2023-03-31T08:45:22.372Z,7.07
2023-03-31T08:47:54.122Z,6.41
2023-03-31T08:50:27.217Z,5.70
2023-03-31T08:53:01.285Z,5.47
2023-03-31T08:55:37.127Z,5.11
2023-03-31T08:58:10.831Z,5.75
2023-03-31T09:00:44.875Z,6.03
2023-03-31T09:03:18.467Z,5.53
2023-03-31T09:06:00.733Z,5.54
2023-03-31T09:08:38.429Z,4.98
2023-03-31T09:11:16.652Z,3.83
2023-03-31T09:14:02.213Z,3.40
2023-03-31T09:16:35.293Z,2.80
2023-03-31T09:19:04.495Z,2.09
2023-03-31T09:21:34.481Z,2.17
2023-03-31T09:24:08.266Z,3.83
2023-03-31T09:26:44.157Z,4.12
2023-03-31T09:29:19.462Z,3.74
2023-03-31T09:31:48.644Z,3.39
2023-03-31T09:34:21.230Z,2.93
2023-03-31T09:36:49.604Z,3.06
2023-03-31T09:39:18.431Z,3.16
2023-03-31T09:41:50.664Z,3.19
2023-03-31T09:44:32.260Z,3.11
2023-03-31T09:47:01.156Z,3.67
2023-03-31T09:49:30.454Z,3.70
2023-03-31T09:52:07.843Z,3.59
2023-03-31T09:54:39.071Z,4.67
2023-03-31T09:57:17.633Z,5.56
2023-03-31T09:59:52.622Z,6.57
2023-03-31T10:02:29.941Z,6.92
2023-03-31T10:04:59.023Z,8.00
2023-03-31T10:07:27.848Z,8.35
2023-03-31T10:09:57.501Z,8.41
2023-03-31T10:12:29.938Z,8.22
2023-03-31T10:15:14.452Z,8.94
2023-03-31T10:17:55.019Z,9.92
2023-03-31T10:20:35.501Z,10.82
2023-03-31T10:23:06.798Z,11.59
2023-03-31T10:25:36.452Z,11.87
2023-03-31T10:28:06.593Z,11.43
2023-03-31T10:30:38.370Z,11.88
2023-03-31T10:33:22.078Z,12.35
2023-03-31T10:35:55.998Z,12.63
2023-03-31T10:38:28.409Z,12.92
2023-03-31T10:40:58.050Z,13.54
2023-03-31T10:43:29.864Z,13.21
2023-03-31T10:46:00.271Z,13.41
2023-03-31T10:48:30.844Z,12.95
2023-03-31T10:51:07.262Z,12.75
2023-03-31T10:53:42.340Z,13.14
2023-03-31T10:56:20.638Z,13.63
2023-03-31T10:59:05.311Z,13.81
2023-03-31T11:01:45.640Z,14.32
2023-03-31T11:04:43.521Z,14.46
2023-03-31T11:07:18.854Z,14.71
2023-03-31T11:10:00.478Z,14.51
2023-03-31T11:12:34.477Z,14.91
2023-03-31T11:15:14.632Z,14.65
2023-03-31T11:17:56.424Z,14.65
2023-03-31T11:20:31.034Z,14.80
2023-03-31T11:23:03.997Z,14.65
2023-03-31T11:25:40.455Z,14.69
2023-03-31T11:28:33.585Z,14.94
2023-03-31T11:31:14.214Z,15.14
2023-03-31T11:33:55.359Z,15.10
2023-03-31T11:36:41.798Z,15.16
2023-03-31T11:39:26.003Z,15.03
2023-03-31T11:41:59.673Z,14.65
2023-03-31T11:44:30.831Z,15.33
2023-03-31T11:47:03.843Z,15.05
2023-03-31T11:49:38.499Z,14.87
2023-03-31T11:52:10.889Z,14.30
2023-03-31T11:54:43.889Z,14.16
2023-03-31T11:57:15.214Z,13.83
2023-03-31T11:59:45.530Z,13.38
2023-03-31T12:02:19.249Z,13.32
2023-03-31T12:04:51.125Z,13.47
2023-03-31T12:07:25.309Z,13.51
2023-03-31T12:10:06.064Z,13.52
2023-03-31T12:12:37.325Z,14.21
2023-03-31T12:15:08.793Z,13.29
2023-03-31T12:17:41.866Z,14.04
2023-03-31T12:20:26.961Z,13.76
2023-03-31T12:22:56.368Z,13.50
2023-03-31T12:25:26.793Z,13.16
2023-03-31T12:27:56.651Z,12.98
2023-03-31T12:30:30.515Z,12.59
2023-03-31T12:33:02.987Z,12.84
2023-03-31T12:35:39.222Z,13.57
2023-03-31T12:38:20.654Z,13.22
2023-03-31T12:40:57.977Z,13.79
2023-03-31T12:43:38.742Z,13.91
2023-03-31T12:46:19.371Z,14.14
2023-03-31T12:49:00.795Z,14.10
2023-03-31T12:51:43.724Z,14.26
2023-03-31T12:54:23.672Z,14.05
2023-03-31T12:57:06.883Z,13.98
2023-03-31T12:59:36.585Z,14.26
2023-03-31T13:02:21.744Z,13.30
2023-03-31T13:04:52.111Z,13.85
2023-03-31T13:07:39.371Z,13.33
2023-03-31T13:10:30.232Z,12.95
2023-03-31T13:13:03.823Z,13.28
2023-03-31T13:15:32.940Z,13.80
2023-03-31T13:18:04.557Z,13.84
2023-03-31T13:20:38.692Z,13.53
2023-03-31T13:23:17.502Z,13.76
2023-03-31T13:25:47.339Z,14.60
2023-03-31T13:28:26.945Z,14.04
2023-03-31T13:30:58.043Z,15.01
2023-03-31T13:33:30.498Z,15.38
2023-03-31T13:36:29.672Z,14.76
2023-03-31T13:39:11.114Z,14.39
2023-03-31T13:41:51.370Z,13.83
2023-03-31T13:44:55.913Z,13.69
2023-03-31T13:47:47.772Z,14.12
2023-03-31T13:50:39.272Z,14.30
2023-03-31T13:53:21.681Z,14.70
2023-03-31T13:56:14.549Z,14.70
2023-03-31T13:59:04.726Z,15.22
2023-03-31T14:01:45.161Z,15.59
2023-03-31T14:04:24.079Z,16.24
2023-03-31T14:06:56.196Z,16.85
2023-03-31T14:09:28.564Z,17.65
2023-03-31T14:12:00.185Z,18.47
2023-03-31T14:14:29.899Z,19.49
2023-03-31T14:17:00.863Z,19.26
2023-03-31T14:19:44.504Z,19.05
2023-03-31T14:22:19.679Z,19.89
2023-03-31T14:24:53.588Z,19.89
2023-03-31T14:27:32.487Z,20.27
2023-03-31T14:30:03.320Z,20.66
2023-03-31T14:32:37.063Z,20.92
2023-03-31T14:35:23.905Z,20.95
2023-03-31T14:37:52.811Z,21.52
2023-03-31T14:40:22.692Z,21.73
2023-03-31T14:42:51.425Z,22.24
2023-03-31T14:45:22.184Z,21.91
2023-03-31T14:47:58.206Z,22.17
2023-03-31T14:50:31.448Z,22.06
2023-03-31T14:53:01.484Z,22.65
2023-03-31T14:55:54.333Z,22.52
2023-03-31T14:58:27.284Z,22.08
2023-03-31T15:00:56.269Z,22.72
2023-03-31T15:03:27.615Z,22.70
2023-03-31T15:05:58.754Z,22.13
2023-03-31T15:08:27.367Z,21.83
2023-03-31T15:11:11.982Z,22.56
2023-03-31T15:13:46.865Z,22.57
2023-03-31T15:16:22.822Z,22.70
2023-03-31T15:18:55.418Z,22.34
2023-03-31T15:21:25.914Z,22.63
2023-03-31T15:23:56.696Z,22.88
2023-03-31T15:26:40.452Z,22.36
2023-03-31T15:29:13.782Z,22.71
2023-03-31T15:31:42.835Z,23.25
2023-03-31T15:34:17.124Z,23.12
2023-03-31T15:36:46.056Z,24.17
2023-03-31T15:39:16.285Z,24.13
2023-03-31T15:41:48.273Z,23.97
2023-03-31T15:44:40.386Z,23.27
2023-03-31T15:47:15.159Z,23.69
2023-03-31T15:49:52.484Z,23.10
2023-03-31T15:52:28.778Z,22.90
2023-03-31T15:54:57.907Z,23.22
2023-03-31T15:57:34.703Z,22.74
2023-03-31T16:00:07.382Z,22.95
2023-03-31T16:02:41.990Z,22.37
2023-03-31T16:05:26.872Z,21.81
2023-03-31T16:07:56.842Z,22.74
2023-03-31T16:10:26.798Z,22.77
2023-03-31T16:12:59.610Z,22.12
2023-03-31T16:15:32.380Z,22.30
2023-03-31T16:18:03.068Z,22.97
2023-03-31T16:20:37.308Z,23.01
2023-03-31T16:23:14.500Z,22.66
2023-03-31T16:25:43.795Z,23.29
2023-03-31T16:28:17.365Z,22.76
2023-03-31T16:30:46.709Z,23.27
2023-03-31T16:33:17.783Z,23.24
2023-03-31T16:35:51.158Z,22.99
2023-03-31T16:38:19.845Z,23.04
2023-03-31T16:40:50.316Z,22.93
2023-03-31T16:43:21.526Z,22.40
2023-03-31T16:45:51.806Z,23.00
2023-03-31T16:48:21.728Z,22.78
2023-03-31T16:50:53.224Z,22.83
2023-03-31T16:53:23.391Z,23.25
2023-03-31T16:55:52.527Z,23.06
2023-03-31T16:58:24.159Z,22.70
2023-03-31T17:00:53.579Z,23.10
2023-03-31T17:03:22.357Z,23.02
2023-03-31T17:05:53.170Z,22.88
2023-03-31T17:08:23.329Z,23.00
2023-03-31T17:10:53.300Z,23.05
2023-03-31T17:13:23.563Z,23.04
2023-03-31T17:15:58.319Z,23.10
2023-03-31T17:18:37.535Z,23.35
2023-03-31T17:21:07.780Z,23.24
2023-03-31T17:23:36.394Z,23.62
2023-03-31T17:26:06.456Z,23.41
2023-03-31T17:28:37.088Z,22.82
2023-03-31T17:31:12.831Z,22.68
2023-03-31T17:33:42.039Z,22.92
2023-03-31T17:36:11.256Z,22.96
2023-03-31T17:38:40.078Z,23.39
2023-03-31T17:41:11.220Z,23.82
2023-03-31T17:43:41.590Z,23.60
2023-03-31T17:46:12.845Z,24.86
2023-03-31T17:48:41.756Z,23.67
2023-03-31T17:51:13.936Z,24.44
2023-03-31T17:53:43.104Z,24.55
2023-03-31T17:56:12.613Z,24.31
2023-03-31T17:58:42.817Z,24.03
2023-03-31T18:01:13.705Z,24.12
2023-03-31T18:03:42.401Z,23.77
2023-03-31T18:06:12.853Z,23.81
2023-03-31T18:08:42.983Z,23.87
2023-03-31T18:11:11.878Z,23.88
2023-03-31T18:13:40.760Z,23.80
2023-03-31T18:16:13.096Z,23.55
2023-03-31T18:18:42.792Z,23.86
2023-03-31T18:21:13.218Z,23.44
2023-03-31T18:23:41.756Z,23.28
2023-03-31T18:26:11.905Z,23.21
2023-03-31T18:28:41.024Z,23.63
2023-03-31T18:31:12.698Z,22.71
2023-03-31T18:33:41.882Z,23.11
2023-03-31T18:36:17.014Z,22.53
2023-03-31T18:38:45.619Z,22.78
2023-03-31T18:41:14.481Z,22.86
2023-03-31T18:43:43.578Z,23.00
2023-03-31T18:46:14.632Z,23.09
2023-03-31T18:48:43.240Z,23.28
2023-03-31T18:51:12.518Z,23.98
2023-03-31T18:53:41.701Z,23.93
2023-03-31T18:56:10.674Z,24.03
2023-03-31T18:58:39.302Z,24.04
2023-03-31T19:01:08.441Z,24.05
2023-03-31T19:03:39.408Z,23.89
2023-03-31T19:06:10.700Z,23.85
2023-03-31T19:08:39.695Z,24.24
2023-03-31T19:11:09.674Z,24.31
2023-03-31T19:13:39.086Z,24.53
2023-03-31T19:16:08.994Z,24.57
2023-03-31T19:18:41.098Z,23.82
2023-03-31T19:21:10.676Z,24.66
2023-03-31T19:23:39.556Z,24.44
2023-03-31T19:26:09.358Z,24.73
2023-03-31T19:28:38.273Z,24.42
2023-03-31T19:31:08.085Z,24.77
2023-03-31T19:33:36.925Z,24.67
2023-03-31T19:36:08.112Z,24.55
2023-03-31T19:38:37.037Z,24.90
2023-03-31T19:41:06.754Z,24.92
2023-03-31T19:43:35.711Z,24.52
2023-03-31T19:46:04.813Z,24.36
2023-03-31T19:48:35.973Z,24.06
2023-03-31T19:51:08.594Z,24.08
2023-03-31T19:53:39.154Z,24.58
2023-03-31T19:56:09.909Z,24.14
2023-03-31T19:58:38.992Z,23.92
2023-03-31T20:01:14.259Z,23.84
2023-03-31T20:03:42.823Z,24.19
2023-03-31T20:06:14.431Z,24.17
2023-03-31T20:08:43.999Z,23.96
2023-03-31T20:11:15.412Z,24.24
2023-03-31T20:13:45.062Z,24.23
2023-03-31T20:16:15.766Z,24.11
2023-03-31T20:18:48.352Z,24.25
2023-03-31T20:21:20.696Z,23.61
2023-03-31T20:23:49.986Z,23.93
2023-03-31T20:26:20.891Z,23.97
2023-03-31T20:28:49.658Z,24.06
2023-03-31T20:31:21.221Z,23.59
2023-03-31T20:33:50.799Z,23.94
2023-03-31T20:36:22.426Z,23.76
2023-03-31T20:38:53.975Z,23.32
2023-03-31T20:41:24.513Z,23.17
2023-03-31T20:43:53.129Z,23.53
2023-03-31T20:46:22.808Z,23.28
2023-03-31T20:48:52.702Z,23.17
2023-03-31T20:51:24.867Z,22.99
2023-03-31T20:53:54.411Z,22.77
2023-03-31T20:56:25.408Z,22.39
2023-03-31T20:58:55.319Z,22.70
2023-03-31T21:01:25.011Z,22.73
2023-03-31T21:03:55.046Z,23.21
2023-03-31T21:06:25.728Z,22.83
2023-03-31T21:08:55.363Z,22.81
2023-03-31T21:11:24.440Z,22.95
2023-03-31T21:13:53.444Z,23.13
2023-03-31T21:16:22.575Z,23.24
2023-03-31T21:18:54.869Z,22.93
2023-03-31T21:21:25.745Z,23.32
2023-03-31T21:23:54.732Z,23.12
2023-03-31T21:26:25.056Z,23.04
2023-03-31T21:28:55.010Z,22.88
2023-03-31T21:31:25.283Z,23.01
2023-03-31T21:33:57.855Z,23.23
2023-03-31T21:36:28.169Z,23.10
2023-03-31T21:38:58.036Z,23.18
2023-03-31T21:41:28.210Z,23.09
2023-03-31T21:44:00.604Z,23.14
2023-03-31T21:46:33.534Z,23.10
2023-03-31T21:49:02.878Z,23.32
2023-03-31T21:51:33.044Z,23.15
2023-03-31T21:54:01.961Z,23.26
2023-03-31T21:56:32.069Z,23.05
2023-03-31T21:59:01.277Z,22.75
2023-03-31T22:01:30.173Z,22.90
2023-03-31T22:04:00.595Z,23.02
2023-03-31T22:06:29.789Z,23.19
2023-03-31T22:08:59.717Z,22.64
2023-03-31T22:11:28.630Z,23.14
2023-03-31T22:13:58.080Z,23.05
2023-03-31T22:16:27.061Z,23.09
2023-03-31T22:18:56.025Z,23.11
2023-03-31T22:21:26.488Z,22.85
2023-03-31T22:23:56.330Z,22.92
2023-03-31T22:26:27.319Z,22.89
2023-03-31T22:28:56.046Z,22.84
2023-03-31T22:31:26.337Z,23.06
2023-03-31T22:33:54.822Z,23.10
2023-03-31T22:36:23.453Z,23.30
2023-03-31T22:38:51.716Z,23.50
2023-03-31T22:41:20.832Z,23.21
2023-03-31T22:43:51.097Z,22.90
2023-03-31T22:46:19.716Z,23.26
2023-03-31T22:48:50.518Z,23.07
2023-03-31T22:51:19.395Z,23.22
2023-03-31T22:53:51.201Z,23.16
2023-03-31T22:56:21.110Z,23.84
2023-03-31T22:58:51.180Z,23.19
2023-03-31T23:01:22.049Z,23.52
2023-03-31T23:03:50.536Z,23.62
2023-03-31T23:06:19.427Z,23.61
2023-03-31T23:08:49.099Z,23.49
2023-03-31T23:11:18.902Z,23.29
2023-03-31T23:13:47.801Z,23.13
2023-03-31T23:16:20.937Z,22.93
2023-03-31T23:18:50.109Z,23.13
2023-03-31T23:21:21.903Z,22.93
2023-03-31T23:23:51.419Z,21.82
2023-03-31T23:26:20.494Z,23.17
2023-03-31T23:28:49.773Z,23.22
2023-03-31T23:31:21.001Z,23.02
2023-03-31T23:33:49.807Z,23.07
2023-03-31T23:36:21.096Z,23.21
2023-03-31T23:38:49.893Z,23.31
2023-03-31T23:41:18.843Z,23.44
2023-03-31T23:43:48.030Z,23.13
2023-03-31T23:46:16.827Z,23.42
2023-03-31T23:48:46.837Z,23.23
2023-03-31T23:51:15.514Z,23.82
2023-03-31T23:53:43.908Z,23.73
2023-03-31T23:56:14.447Z,23.89
2023-03-31T23:58:43.138Z,24.05
